Glide, Oregon
Current Conditions -  °F | °C
As of 6:53 PM on Sunday 21 Dec 2014 (Local Time) from KRBG Reporting Station
Overcast Overcast  
Wind Chill: 58°   Ceiling: 3500
Heat Index: 58°   Visibility: 10mi
Dew Point: 54°   Wind: 3mph
Humidity: 87%   Direction: 190°S
Pressure: 30.2"   Gusts: NA
Location:  43.3°N, 123.1°W
Report Text: KRBG 220253Z AUTO 19003KT 10SM OVC035 14/12 A3020 RMK AO2 RAE13 SLP226 P0000 60001 T01440122 50000
Loading
Personal Weather Stations






























Interactive Weather Map New forecast layout! Learn more

10-Day Weather Forecast

Advertisements
Track Severe Weather on mobile